Saint Nikolaos — V7CQ4 — position and weather

sailwx.info

Track history (hours):
 
Tides and Currents Weather Stations Pressure Air Temp Water Temp Dewpoint Dewpoint Depression Visibility Wind Speed Wind Dir Waves Ship Positions

Saint Nikolaos

Last reported at 2017-Oct-16 06:43 UTC. Time now 2017-Oct-19 16:56 UTC.
Position N 25°55' W 079°40'.

Length 211 m; draft 9.6 m.

Type: Ship (hazmat cat A). MMSI: 538005306.

Date/timePositionNaut miles runAvg speedWind from/ knotsBaromVisibWave heightAir tempDewpointWater temp
2017-Oct-16 06:43N 25°55' W 079°40'316.4
2017-Oct-16 06:30N 25°57' W 079°43'816.7
2017-Oct-16 06:00N 25°58' W 079°52'714.4
2017-Oct-16 05:30N 26°00' W 079°60'713.9
2017-Oct-16 05:00N 26°05' W 080°05'2 3.8
2017-Oct-16 04:30N 26°04' W 080°07'0 0.2
2017-Oct-16 03:52N 26°04' W 080°07'0 0.0
2017-Oct-16 03:25N 26°04' W 080°07'0 0.0
2017-Oct-16 02:55N 26°04' W 080°07'0 0.0
2017-Oct-16 02:28N 26°04' W 080°07'0 0.0
2017-Oct-16 01:58N 26°04' W 080°07'0 0.0
2017-Oct-16 01:28N 26°04' W 080°07'0 0.0
2017-Oct-16 00:58N 26°04' W 080°07'0 0.0
2017-Oct-16 00:28N 26°04' W 080°07'0 0.0
2017-Oct-15 23:58N 26°04' W 080°07'0 0.0
2017-Oct-15 23:28N 26°04' W 080°07'0 0.0
2017-Oct-15 22:58N 26°04' W 080°07'0 0.0
2017-Oct-15 22:28N 26°04' W 080°07'0 0.0
2017-Oct-15 21:58N 26°04' W 080°07'0 0.0
2017-Oct-15 21:28N 26°04' W 080°07'0 0.0
2017-Oct-15 20:49N 26°04' W 080°07'0 0.0
2017-Oct-15 20:28N 26°04' W 080°07'0 0.0
2017-Oct-15 19:58N 26°04' W 080°07'0 0.0
2017-Oct-15 19:19N 26°04' W 080°07'0 0.0
2017-Oct-15 18:49N 26°04' W 080°07'0 0.0
2017-Oct-15 18:22N 26°04' W 080°07'0 0.0
2017-Oct-15 17:55N 26°04' W 080°07'0 0.0
2017-Oct-15 17:22N 26°04' W 080°07'0 0.0
2017-Oct-15 16:55N 26°04' W 080°07'0 0.0
2017-Oct-15 16:22N 26°04' W 080°07'0 0.0
2017-Oct-15 15:52N 26°04' W 080°07'0 0.0
2017-Oct-15 15:25N 26°04' W 080°07'0 0.0
2017-Oct-15 14:55N 26°04' W 080°07'0 0.0
2017-Oct-15 13:55N 26°04' W 080°07'0 0.0
2017-Oct-15 13:28N 26°04' W 080°07'1 1.5
2017-Oct-15 13:00N 26°05' W 080°07'3 6.0
2017-Oct-15 12:30N 26°05' W 080°04'2 4.0
2017-Oct-15 12:00N 26°06' W 080°01'3 5.6
2017-Oct-15 11:30N 26°08' W 080°01'3 5.9
2017-Oct-15 11:00N 26°11' W 080°00'3 5.6
2017-Oct-15 10:30N 26°14' W 079°59'4 8.9
2017-Oct-15 10:00N 26°18' W 079°58'5 9.9
2017-Oct-15 09:29N 26°23' W 079°57'3411.1
2017-Oct-15 06:24N 26°58' W 079°55'611.2
2017-Oct-15 05:50N 27°04' W 079°56'28513.4
2017-Oct-14 08:35N 31°47' W 080°34'116.1
2017-Oct-14 08:30N 31°48' W 080°35'815.8
2017-Oct-14 08:00N 31°55' W 080°40'713.1
2017-Oct-14 07:30N 31°59' W 080°46'612.2
2017-Oct-14 07:00N 32°02' W 080°53'510.2
2017-Oct-14 06:30N 32°04' W 080°58'4 8.4
2017-Oct-14 05:59N 32°05' W 081°03'2 4.9
2017-Oct-14 05:30N 32°05' W 081°06'2 4.9
2017-Oct-14 05:00N 32°07' W 081°08'0 0.5
2017-Oct-14 04:27N 32°07' W 081°08'0 0.0
2017-Oct-14 03:57N 32°07' W 081°08'0 0.0
2017-Oct-14 03:27N 32°07' W 081°08'0 0.0
2017-Oct-14 02:51N 32°07' W 081°08'0 0.0
2017-Oct-14 02:21N 32°07' W 081°08'0 0.0
2017-Oct-14 01:33N 32°07' W 081°08'0 0.0
2017-Oct-14 01:27N 32°07' W 081°08'0 0.0
2017-Oct-14 00:39N 32°07' W 081°08'0 0.0
2017-Oct-14 00:27N 32°07' W 081°08'0 0.0
2017-Oct-13 23:57N 32°07' W 081°08'0 0.0
2017-Oct-13 23:27N 32°07' W 081°08'0 0.0
2017-Oct-13 22:27N 32°07' W 081°08'0 0.0
2017-Oct-13 21:45N 32°07' W 081°08'0 0.0
2017-Oct-13 21:15N 32°07' W 081°08'0 0.0
2017-Oct-13 20:39N 32°07' W 081°08'0 0.0
2017-Oct-13 20:27N 32°07' W 081°08'0 0.0
2017-Oct-13 19:57N 32°07' W 081°08'0 0.0
2017-Oct-13 19:27N 32°07' W 081°08'0 0.0
2017-Oct-13 18:57N 32°07' W 081°08'0 0.0
2017-Oct-13 18:27N 32°07' W 081°08'0 0.0
2017-Oct-13 17:33N 32°07' W 081°08'0 0.0
2017-Oct-13 17:21N 32°07' W 081°08'0 0.0
2017-Oct-13 16:57N 32°07' W 081°08'0 0.0
2017-Oct-13 16:15N 32°07' W 081°08'0 0.0
2017-Oct-13 15:46N 32°07' W 081°08'0 0.8
2017-Oct-13 15:30N 32°07' W 081°08'0 0.6
2017-Oct-13 15:00N 32°07' W 081°08'2 4.9
2017-Oct-13 14:30N 32°05' W 081°06'3 5.1
2017-Oct-13 14:00N 32°05' W 081°03'4 6.9
2017-Oct-13 13:30N 32°05' W 080°59'5 9.7
2017-Oct-13 13:00N 32°02' W 080°54'612.0
2017-Oct-13 12:30N 32°00' W 080°48'714.0
2017-Oct-13 12:00N 31°57' W 080°40'57317.2
2017-Oct-12 02:41N 39°45' W 073°54'419.0
2017-Oct-12 02:28N 39°49' W 073°52'1918.8
2017-Oct-12 01:29N 40°08' W 073°51'1118.7
2017-Oct-12 00:54N 40°19' W 073°49'717.1
2017-Oct-12 00:30N 40°25' W 073°49'611.1
2017-Oct-12 00:00N 40°29' W 073°55'714.4
2017-Oct-11 23:30N 40°34' W 074°02'611.4
2017-Oct-11 22:59N 40°39' W 074°06'3 6.9
2017-Oct-11 22:30N 40°39' W 074°10'1 2.3
2017-Oct-11 22:00N 40°38' W 074°11'0 0.0
2017-Oct-11 21:30N 40°38' W 074°11'0 0.0
2017-Oct-11 21:00N 40°38' W 074°11'0 0.0
2017-Oct-11 20:24N 40°38' W 074°11'0 0.0
2017-Oct-11 19:54N 40°38' W 074°11'0 0.0
2017-Oct-11 19:30N 40°38' W 074°11'0 0.0
2017-Oct-11 18:45N 40°38' W 074°11'0 0.0
2017-Oct-11 18:06N 40°38' W 074°11'0 0.0
2017-Oct-11 18:00N 40°38' W 074°11'0 0.0
2017-Oct-11 17:30N 40°38' W 074°11'0 0.0
2017-Oct-11 17:00N 40°38' W 074°11'60 2.2
2017-Oct-10 13:54N 39°45' W 073°36'5 6.4
2017-Oct-10 13:09N 39°42' W 073°40'2 8.9
2017-Oct-10 12:56N 39°40' W 073°41'5 8.9
2017-Oct-10 12:26N 39°36' W 073°44'4 8.6
2017-Oct-10 11:59N 39°33' W 073°47'4 9.4
2017-Oct-10 11:30N 39°29' W 073°50'611.2
2017-Oct-10 11:01N 39°24' W 073°53'611.4
2017-Oct-10 10:31N 39°19' W 073°57'611.6
2017-Oct-10 10:00N 39°14' W 074°01'611.7
2017-Oct-10 09:30N 39°09' W 074°05'611.7
2017-Oct-10 09:00N 39°04' W 074°09'611.9
2017-Oct-10 08:30N 38°59' W 074°13'612.2
2017-Oct-10 08:01N 38°54' W 074°17'611.8
2017-Oct-10 07:31N 38°49' W 074°22'612.6
2017-Oct-10 07:00N 38°46' W 074°29'612.5
2017-Oct-10 06:30N 38°45' W 074°37'612.7
2017-Oct-10 06:00N 38°45' W 074°45'714.2
2017-Oct-10 05:30N 38°45' W 074°54'611.6
2017-Oct-10 05:00N 38°46' W 075°01'611.3
2017-Oct-10 04:30N 38°51' W 075°05'712.9
2017-Oct-10 04:00N 38°57' W 075°07'714.1
2017-Oct-10 03:30N 39°04' W 075°10'714.1
2017-Oct-10 03:00N 39°10' W 075°15'714.4
2017-Oct-10 02:30N 39°16' W 075°20'815.6
2017-Oct-10 02:00N 39°22' W 075°27'816.3
2017-Oct-10 01:30N 39°28' W 075°34'713.2
2017-Oct-10 01:01N 39°35' W 075°33'611.7
2017-Oct-10 00:30N 39°40' W 075°32'612.6
2017-Oct-10 00:00N 39°46' W 075°28'510.0
2017-Oct-09 23:30N 39°49' W 075°23'611.6
2017-Oct-09 23:00N 39°51' W 075°16'5 9.6
2017-Oct-09 22:30N 39°53' W 075°10'2 4.4
2017-Oct-09 22:00N 39°54' W 075°08'0 0.0
2017-Oct-09 21:31N 39°54' W 075°08'0 0.0
2017-Oct-09 21:00N 39°54' W 075°08'0 0.0
2017-Oct-09 20:27N 39°54' W 075°08'0 0.0
2017-Oct-09 20:01N 39°54' W 075°08'0 0.0
2017-Oct-09 19:27N 39°54' W 075°08'0 0.0
2017-Oct-09 18:57N 39°54' W 075°08'0 0.0
2017-Oct-09 18:27N 39°54' W 075°08'0 0.0
2017-Oct-09 18:01N 39°54' W 075°08'0 0.0
2017-Oct-09 17:31N 39°54' W 075°08'0 0.0
2017-Oct-09 16:57N 39°54' W 075°08'0 0.0
2017-Oct-09 16:27N 39°54' W 075°08'0 0.0
2017-Oct-09 16:00N 39°54' W 075°08'0 0.0
2017-Oct-09 15:31N 39°54' W 075°08'0 0.0
2017-Oct-09 15:01N 39°54' W 075°08'0 0.0
2017-Oct-09 14:27N 39°54' W 075°08'0 0.0
2017-Oct-09 13:57N 39°54' W 075°08'0 0.0
2017-Oct-09 13:31N 39°54' W 075°08'0 0.0
2017-Oct-09 12:57N 39°54' W 075°08'0 0.0
2017-Oct-09 12:31N 39°54' W 075°08'0 0.0
2017-Oct-09 11:57N 39°54' W 075°08'0 0.0
2017-Oct-09 11:30N 39°54' W 075°08'1 1.3
2017-Oct-09 11:00N 39°53' W 075°08'4 7.3
2017-Oct-09 10:30N 39°52' W 075°13'4 8.1
2017-Oct-09 10:00N 39°51' W 075°18'5 9.6
2017-Oct-09 09:30N 39°49' W 075°24'4 8.8
2017-Oct-09 09:00N 39°46' W 075°28'611.1
2017-Oct-09 08:31N 39°41' W 075°31'612.9
2017-Oct-09 08:00N 39°35' W 075°34'612.8
2017-Oct-09 07:31N 39°29' W 075°34'815.2
2017-Oct-09 07:01N 39°23' W 075°28'815.6
2017-Oct-09 06:31N 39°17' W 075°21'815.4
2017-Oct-09 06:01N 39°10' W 075°16'815.4
2017-Oct-09 05:31N 39°04' W 075°10'815.3
2017-Oct-09 05:00N 38°57' W 075°07'714.3
2017-Oct-09 04:30N 38°50' W 075°03'510.5
2017-Oct-09 04:00N 38°46' W 074°59'4 6.6
2017-Oct-09 03:27N 38°44' W 074°56'3711.2
2017-Oct-09 00:06N 38°10' W 074°34'  
Track history (hours):
 
Tides and Currents Weather Stations Pressure Air Temp Water Temp Dewpoint Dewpoint Depression Visibility Wind Speed Wind Dir Waves Ship Positions

Saint Nikolaos

Last reported at 2017-Oct-16 06:43 UTC. Time now 2017-Oct-19 16:56 UTC.
Position N 25°55' W 079°40'.

Length 211 m; draft 9.6 m.

Type: Ship (hazmat cat A). MMSI: 538005306.

Date/timePositionNaut miles runAvg speedWind from/ knotsBaromVisibWave heightAir tempDewpointWater temp
2017-Oct-16 06:43N 25°55' W 079°40'316.4
2017-Oct-16 06:30N 25°57' W 079°43'816.7
2017-Oct-16 06:00N 25°58' W 079°52'714.4
2017-Oct-16 05:30N 26°00' W 079°60'713.9
2017-Oct-16 05:00N 26°05' W 080°05'2 3.8
2017-Oct-16 04:30N 26°04' W 080°07'0 0.2
2017-Oct-16 03:52N 26°04' W 080°07'0 0.0
2017-Oct-16 03:25N 26°04' W 080°07'0 0.0
2017-Oct-16 02:55N 26°04' W 080°07'0 0.0
2017-Oct-16 02:28N 26°04' W 080°07'0 0.0
2017-Oct-16 01:58N 26°04' W 080°07'0 0.0
2017-Oct-16 01:28N 26°04' W 080°07'0 0.0
2017-Oct-16 00:58N 26°04' W 080°07'0 0.0
2017-Oct-16 00:28N 26°04' W 080°07'0 0.0
2017-Oct-15 23:58N 26°04' W 080°07'0 0.0
2017-Oct-15 23:28N 26°04' W 080°07'0 0.0
2017-Oct-15 22:58N 26°04' W 080°07'0 0.0
2017-Oct-15 22:28N 26°04' W 080°07'0 0.0
2017-Oct-15 21:58N 26°04' W 080°07'0 0.0
2017-Oct-15 21:28N 26°04' W 080°07'0 0.0
2017-Oct-15 20:49N 26°04' W 080°07'0 0.0
2017-Oct-15 20:28N 26°04' W 080°07'0 0.0
2017-Oct-15 19:58N 26°04' W 080°07'0 0.0
2017-Oct-15 19:19N 26°04' W 080°07'0 0.0
2017-Oct-15 18:49N 26°04' W 080°07'0 0.0
2017-Oct-15 18:22N 26°04' W 080°07'0 0.0
2017-Oct-15 17:55N 26°04' W 080°07'0 0.0
2017-Oct-15 17:22N 26°04' W 080°07'0 0.0
2017-Oct-15 16:55N 26°04' W 080°07'0 0.0
2017-Oct-15 16:22N 26°04' W 080°07'0 0.0
2017-Oct-15 15:52N 26°04' W 080°07'0 0.0
2017-Oct-15 15:25N 26°04' W 080°07'0 0.0
2017-Oct-15 14:55N 26°04' W 080°07'0 0.0
2017-Oct-15 13:55N 26°04' W 080°07'0 0.0
2017-Oct-15 13:28N 26°04' W 080°07'1 1.5
2017-Oct-15 13:00N 26°05' W 080°07'3 6.0
2017-Oct-15 12:30N 26°05' W 080°04'2 4.0
2017-Oct-15 12:00N 26°06' W 080°01'3 5.6
2017-Oct-15 11:30N 26°08' W 080°01'3 5.9
2017-Oct-15 11:00N 26°11' W 080°00'3 5.6
2017-Oct-15 10:30N 26°14' W 079°59'4 8.9
2017-Oct-15 10:00N 26°18' W 079°58'5 9.9
2017-Oct-15 09:29N 26°23' W 079°57'3411.1
2017-Oct-15 06:24N 26°58' W 079°55'611.2
2017-Oct-15 05:50N 27°04' W 079°56'28513.4
2017-Oct-14 08:35N 31°47' W 080°34'116.1
2017-Oct-14 08:30N 31°48' W 080°35'815.8
2017-Oct-14 08:00N 31°55' W 080°40'713.1
2017-Oct-14 07:30N 31°59' W 080°46'612.2
2017-Oct-14 07:00N 32°02' W 080°53'510.2
2017-Oct-14 06:30N 32°04' W 080°58'4 8.4
2017-Oct-14 05:59N 32°05' W 081°03'2 4.9
2017-Oct-14 05:30N 32°05' W 081°06'2 4.9
2017-Oct-14 05:00N 32°07' W 081°08'0 0.5
2017-Oct-14 04:27N 32°07' W 081°08'0 0.0
2017-Oct-14 03:57N 32°07' W 081°08'0 0.0
2017-Oct-14 03:27N 32°07' W 081°08'0 0.0
2017-Oct-14 02:51N 32°07' W 081°08'0 0.0
2017-Oct-14 02:21N 32°07' W 081°08'0 0.0
2017-Oct-14 01:33N 32°07' W 081°08'0 0.0
2017-Oct-14 01:27N 32°07' W 081°08'0 0.0
2017-Oct-14 00:39N 32°07' W 081°08'0 0.0
2017-Oct-14 00:27N 32°07' W 081°08'0 0.0
2017-Oct-13 23:57N 32°07' W 081°08'0 0.0
2017-Oct-13 23:27N 32°07' W 081°08'0 0.0
2017-Oct-13 22:27N 32°07' W 081°08'0 0.0
2017-Oct-13 21:45N 32°07' W 081°08'0 0.0
2017-Oct-13 21:15N 32°07' W 081°08'0 0.0
2017-Oct-13 20:39N 32°07' W 081°08'0 0.0
2017-Oct-13 20:27N 32°07' W 081°08'0 0.0
2017-Oct-13 19:57N 32°07' W 081°08'0 0.0
2017-Oct-13 19:27N 32°07' W 081°08'0 0.0
2017-Oct-13 18:57N 32°07' W 081°08'0 0.0
2017-Oct-13 18:27N 32°07' W 081°08'0 0.0
2017-Oct-13 17:33N 32°07' W 081°08'0 0.0
2017-Oct-13 17:21N 32°07' W 081°08'0 0.0
2017-Oct-13 16:57N 32°07' W 081°08'0 0.0
2017-Oct-13 16:15N 32°07' W 081°08'0 0.0
2017-Oct-13 15:46N 32°07' W 081°08'0 0.8
2017-Oct-13 15:30N 32°07' W 081°08'0 0.6
2017-Oct-13 15:00N 32°07' W 081°08'2 4.9
2017-Oct-13 14:30N 32°05' W 081°06'3 5.1
2017-Oct-13 14:00N 32°05' W 081°03'4 6.9
2017-Oct-13 13:30N 32°05' W 080°59'5 9.7
2017-Oct-13 13:00N 32°02' W 080°54'612.0
2017-Oct-13 12:30N 32°00' W 080°48'714.0
2017-Oct-13 12:00N 31°57' W 080°40'57317.2
2017-Oct-12 02:41N 39°45' W 073°54'419.0
2017-Oct-12 02:28N 39°49' W 073°52'1918.8
2017-Oct-12 01:29N 40°08' W 073°51'1118.7
2017-Oct-12 00:54N 40°19' W 073°49'717.1
2017-Oct-12 00:30N 40°25' W 073°49'611.1
2017-Oct-12 00:00N 40°29' W 073°55'714.4
2017-Oct-11 23:30N 40°34' W 074°02'611.4
2017-Oct-11 22:59N 40°39' W 074°06'3 6.9
2017-Oct-11 22:30N 40°39' W 074°10'1 2.3
2017-Oct-11 22:00N 40°38' W 074°11'0 0.0
2017-Oct-11 21:30N 40°38' W 074°11'0 0.0
2017-Oct-11 21:00N 40°38' W 074°11'0 0.0
2017-Oct-11 20:24N 40°38' W 074°11'0 0.0
2017-Oct-11 19:54N 40°38' W 074°11'0 0.0
2017-Oct-11 19:30N 40°38' W 074°11'0 0.0
2017-Oct-11 18:45N 40°38' W 074°11'0 0.0
2017-Oct-11 18:06N 40°38' W 074°11'0 0.0
2017-Oct-11 18:00N 40°38' W 074°11'0 0.0
2017-Oct-11 17:30N 40°38' W 074°11'0 0.0
2017-Oct-11 17:00N 40°38' W 074°11'60 2.2
2017-Oct-10 13:54N 39°45' W 073°36'5 6.4
2017-Oct-10 13:09N 39°42' W 073°40'2 8.9
2017-Oct-10 12:56N 39°40' W 073°41'5 8.9
2017-Oct-10 12:26N 39°36' W 073°44'4 8.6
2017-Oct-10 11:59N 39°33' W 073°47'4 9.4
2017-Oct-10 11:30N 39°29' W 073°50'611.2
2017-Oct-10 11:01N 39°24' W 073°53'611.4
2017-Oct-10 10:31N 39°19' W 073°57'611.6
2017-Oct-10 10:00N 39°14' W 074°01'611.7
2017-Oct-10 09:30N 39°09' W 074°05'611.7
2017-Oct-10 09:00N 39°04' W 074°09'611.9
2017-Oct-10 08:30N 38°59' W 074°13'612.2
2017-Oct-10 08:01N 38°54' W 074°17'611.8
2017-Oct-10 07:31N 38°49' W 074°22'612.6
2017-Oct-10 07:00N 38°46' W 074°29'612.5
2017-Oct-10 06:30N 38°45' W 074°37'612.7
2017-Oct-10 06:00N 38°45' W 074°45'714.2
2017-Oct-10 05:30N 38°45' W 074°54'611.6
2017-Oct-10 05:00N 38°46' W 075°01'611.3
2017-Oct-10 04:30N 38°51' W 075°05'712.9
2017-Oct-10 04:00N 38°57' W 075°07'714.1
2017-Oct-10 03:30N 39°04' W 075°10'714.1
2017-Oct-10 03:00N 39°10' W 075°15'714.4
2017-Oct-10 02:30N 39°16' W 075°20'815.6
2017-Oct-10 02:00N 39°22' W 075°27'816.3
2017-Oct-10 01:30N 39°28' W 075°34'713.2
2017-Oct-10 01:01N 39°35' W 075°33'611.7
2017-Oct-10 00:30N 39°40' W 075°32'612.6
2017-Oct-10 00:00N 39°46' W 075°28'510.0
2017-Oct-09 23:30N 39°49' W 075°23'611.6
2017-Oct-09 23:00N 39°51' W 075°16'5 9.6
2017-Oct-09 22:30N 39°53' W 075°10'2 4.4
2017-Oct-09 22:00N 39°54' W 075°08'0 0.0
2017-Oct-09 21:31N 39°54' W 075°08'0 0.0
2017-Oct-09 21:00N 39°54' W 075°08'0 0.0
2017-Oct-09 20:27N 39°54' W 075°08'0 0.0
2017-Oct-09 20:01N 39°54' W 075°08'0 0.0
2017-Oct-09 19:27N 39°54' W 075°08'0 0.0
2017-Oct-09 18:57N 39°54' W 075°08'0 0.0
2017-Oct-09 18:27N 39°54' W 075°08'0 0.0
2017-Oct-09 18:01N 39°54' W 075°08'0 0.0
2017-Oct-09 17:31N 39°54' W 075°08'0 0.0
2017-Oct-09 16:57N 39°54' W 075°08'0 0.0
2017-Oct-09 16:27N 39°54' W 075°08'0 0.0
2017-Oct-09 16:00N 39°54' W 075°08'0 0.0
2017-Oct-09 15:31N 39°54' W 075°08'0 0.0
2017-Oct-09 15:01N 39°54' W 075°08'0 0.0
2017-Oct-09 14:27N 39°54' W 075°08'0 0.0
2017-Oct-09 13:57N 39°54' W 075°08'0 0.0
2017-Oct-09 13:31N 39°54' W 075°08'0 0.0
2017-Oct-09 12:57N 39°54' W 075°08'0 0.0
2017-Oct-09 12:31N 39°54' W 075°08'0 0.0
2017-Oct-09 11:57N 39°54' W 075°08'0 0.0
2017-Oct-09 11:30N 39°54' W 075°08'1 1.3
2017-Oct-09 11:00N 39°53' W 075°08'4 7.3
2017-Oct-09 10:30N 39°52' W 075°13'4 8.1
2017-Oct-09 10:00N 39°51' W 075°18'5 9.6
2017-Oct-09 09:30N 39°49' W 075°24'4 8.8
2017-Oct-09 09:00N 39°46' W 075°28'611.1
2017-Oct-09 08:31N 39°41' W 075°31'612.9
2017-Oct-09 08:00N 39°35' W 075°34'612.8
2017-Oct-09 07:31N 39°29' W 075°34'815.2
2017-Oct-09 07:01N 39°23' W 075°28'815.6
2017-Oct-09 06:31N 39°17' W 075°21'815.4
2017-Oct-09 06:01N 39°10' W 075°16'815.4
2017-Oct-09 05:31N 39°04' W 075°10'815.3
2017-Oct-09 05:00N 38°57' W 075°07'714.3
2017-Oct-09 04:30N 38°50' W 075°03'510.5
2017-Oct-09 04:00N 38°46' W 074°59'4 6.6
2017-Oct-09 03:27N 38°44' W 074°56'3711.2
2017-Oct-09 00:06N 38°10' W 074°34'  

Dump ship's entire track history